Time;durP1;ratioP1;P1;durP2;ratioP2;P2;SDS_P1;SDS_P2;PMS_P1;PMS_P2;Temp;Humidity;BMP_temperature;BMP_pressure;BME280_temperature;BME280_humidity;BME280_pressure;Samples;Min_cycle;Max_cycle;Signal;HPM_P1;HPM_P2
2022/06/15 00:02:41;;;;;;;1.63;0.90;;;16.70;39.90;;;14.47;43.51;101730.38;12239257;19;20015;-76
2022/06/15 00:06:43;;;;;;;0.98;0.90;;;16.60;40.00;;;14.39;43.55;101725.53;12237619;19;20045;-76
2022/06/15 00:10:45;;;;;;;0.90;0.80;;;16.50;40.00;;;14.28;43.28;101718.22;12237574;19;20014;-76
2022/06/15 00:14:48;;;;;;;2.10;0.68;;;16.90;40.20;;;14.36;43.65;101728.31;12238806;19;20360;-76
2022/06/15 00:18:49;;;;;;;2.20;0.93;;;16.60;40.20;;;13.83;43.80;101663.81;12238394;19;20365;-76
2022/06/15 00:22:51;;;;;;;1.05;0.98;;;16.70;40.30;;;14.05;43.70;101716.88;12236904;19;20022;-76
2022/06/15 00:26:52;;;;;;;1.02;0.90;;;16.20;40.10;;;13.60;44.05;101667.66;12235874;19;20010;-76
2022/06/15 00:30:54;;;;;;;0.98;0.70;;;16.10;40.10;;;14.02;44.09;101737.22;12236100;19;20015;-76
2022/06/15 00:34:56;;;;;;;2.15;0.90;;;16.00;40.30;;;13.92;44.07;101732.44;12239131;19;20022;-76
2022/06/15 00:39:00;;;;;;;0.77;0.77;;;16.10;40.40;;;13.90;44.25;101738.69;12236446;19;20089;-76
2022/06/15 00:43:02;;;;;;;1.02;0.70;;;16.00;40.40;;;13.79;44.17;101733.16;12237335;19;20485;-76
2022/06/15 00:47:18;;;;;;;1.15;1.05;;;15.90;40.50;;;13.76;44.36;101723.66;12239983;19;20103;-76
2022/06/15 00:51:22;;;;;;;1.20;0.80;;;15.80;40.70;;;13.53;44.27;101701.25;12249472;19;20014;-76
2022/06/15 00:55:32;;;;;;;0.88;0.80;;;15.80;40.60;;;13.35;44.58;101678.59;12247683;19;20039;-76
2022/06/15 00:59:40;;;;;;;1.20;0.95;;;15.70;40.90;;;13.65;44.61;101734.72;12249814;19;20066;-76
2022/06/15 01:03:44;;;;;;;2.67;1.20;;;15.60;40.80;;;13.44;44.46;101714.84;12247103;19;20371;-76
2022/06/15 01:08:32;;;;;;;2.85;2.05;;;15.60;41.00;;;13.53;44.63;101737.13;12236728;19;20015;-76
2022/06/15 01:12:52;;;;;;;0.98;0.77;;;15.50;41.20;;;13.52;44.94;101732.81;12245102;19;20069;-77
2022/06/15 01:17:20;;;;;;;1.65;0.93;;;15.50;41.30;;;13.45;44.95;101724.44;12246129;19;20027;-76
2022/06/15 01:21:30;;;;;;;1.63;0.90;;;15.50;41.10;;;13.36;45.01;101727.50;12248690;19;20022;-76
2022/06/15 01:26:28;;;;;;;0.80;0.80;;;15.40;41.10;;;13.33;44.90;101736.38;12247853;19;20012;-76
2022/06/15 01:31:26;;;;;;;0.73;0.73;;;15.40;41.30;;;13.21;44.90;101729.09;12247457;19;20011;-76
2022/06/15 01:35:39;;;;;;;0.70;0.70;;;15.30;41.20;;;13.19;45.12;101737.03;12244969;19;20026;-76
2022/06/15 01:39:56;;;;;;;0.88;0.70;;;15.30;40.60;;;13.15;45.18;101732.88;12249125;19;20003;-76
2022/06/15 01:44:05;;;;;;;0.90;0.90;;;15.20;41.00;;;13.05;45.19;101724.63;12248329;19;20056;-76
2022/06/15 01:48:11;;;;;;;1.27;0.82;;;15.10;41.10;;;12.91;45.20;101720.97;12241296;19;20519;-77
2022/06/15 01:52:22;;;;;;;1.10;1.10;;;15.10;41.00;;;12.88;45.35;101722.00;12245238;19;20125;-77
2022/06/15 01:56:47;;;;;;;1.00;0.90;;;15.00;41.20;;;12.84;45.52;101720.44;12246306;19;20400;-77
2022/06/15 02:01:11;;;;;;;1.10;0.98;;;14.90;41.50;;;12.88;45.50;101724.59;12247767;19;20074;-77
2022/06/15 02:06:09;;;;;;;2.05;1.30;;;14.90;41.50;;;12.75;45.27;101711.25;12247056;19;20021;-78
2022/06/15 02:10:31;;;;;;;2.05;1.20;;;14.90;41.50;;;12.66;45.63;101709.03;12245416;19;20002;-77
2022/06/15 02:14:44;;;;;;;1.52;0.88;;;15.00;41.60;;;12.42;45.76;101676.16;12244689;19;20102;-77
2022/06/15 02:18:47;;;;;;;0.77;0.77;;;14.70;41.60;;;12.54;45.62;101715.72;12245696;19;20018;-77
2022/06/15 02:22:52;;;;;;;0.85;0.80;;;14.60;41.50;;;12.37;45.83;101687.72;12247748;19;20010;-77
2022/06/15 02:26:55;;;;;;;0.93;0.93;;;14.60;41.60;;;12.44;45.71;101697.91;12243338;19;20415;-77
2022/06/15 02:30:58;;;;;;;0.77;0.77;;;14.60;41.60;;;12.52;45.63;101708.88;12245053;19;20030;-77
2022/06/15 02:34:59;;;;;;;1.50;0.93;;;14.60;41.60;;;12.48;45.66;101702.94;12245824;19;20126;-77
2022/06/15 02:39:05;;;;;;;0.95;0.95;;;14.60;41.70;;;12.32;45.92;101691.47;12245235;19;20390;-77
2022/06/15 02:43:08;;;;;;;1.77;1.20;;;14.60;41.80;;;12.24;45.89;101691.84;12247385;19;20003;-77
2022/06/15 02:47:10;;;;;;;1.88;1.10;;;14.50;41.60;;;12.33;45.92;101720.22;12242655;19;20011;-77
2022/06/15 02:52:06;;;;;;;1.42;1.08;;;14.90;41.80;;;12.21;46.13;101704.22;12241983;19;20014;-77
2022/06/15 02:56:13;;;;;;;1.63;1.17;;;14.50;42.00;;;12.22;46.16;101712.00;12243996;19;20015;-77
2022/06/15 03:00:17;;;;;;;4.78;1.40;;;14.40;41.60;;;12.07;46.05;101710.06;12245721;19;20018;-77
2022/06/15 03:04:21;;;;;;;0.85;0.82;;;14.30;41.70;;;12.14;46.13;101727.22;12243950;19;20018;-77
2022/06/15 03:08:24;;;;;;;1.40;1.30;;;14.30;41.70;;;12.15;46.20;101734.13;12238258;19;20011;-77
2022/06/15 03:12:33;;;;;;;1.08;0.88;;;14.50;41.90;;;12.05;46.16;101709.31;12239816;19;20350;-77
2022/06/15 03:16:36;;;;;;;1.52;0.95;;;14.20;41.80;;;11.97;46.36;101706.22;12241070;19;20034;-77
2022/06/15 03:20:38;;;;;;;1.00;1.00;;;14.50;42.00;;;11.95;46.29;101711.50;12242205;19;20025;-77
2022/06/15 03:24:40;;;;;;;1.65;1.40;;;14.20;42.10;;;11.96;46.33;101715.81;12242198;19;20035;-77
2022/06/15 03:28:45;;;;;;;1.05;1.05;;;14.20;42.20;;;12.05;46.55;101718.03;12241602;19;20018;-77
2022/06/15 03:32:50;;;;;;;;;;;14.20;42.30;;;12.11;46.06;101720.34;12241511;19;20843;-77
2022/06/15 03:36:54;;;;;;;0.80;0.80;;;14.40;41.80;;;12.00;46.38;101716.53;12239987;19;20306;-77
2022/06/15 03:40:56;;;;;;;4.57;1.40;;;14.20;42.00;;;12.08;46.25;101724.88;12243265;19;20111;-77
2022/06/15 03:44:59;;;;;;;0.90;0.90;;;14.20;42.10;;;12.11;46.41;101736.06;12241445;19;20014;-77
2022/06/15 03:49:10;;;;;;;1.90;1.00;;;14.20;42.20;;;12.02;46.61;101725.19;12240509;19;20026;-77
2022/06/15 03:53:13;;;;;;;1.52;0.93;;;14.20;42.20;;;11.79;46.75;101686.91;12242286;19;20010;-77
2022/06/15 03:57:20;;;;;;;1.25;1.10;;;14.20;42.60;;;11.57;46.74;101660.84;12238262;19;20027;-77
2022/06/15 04:01:22;;;;;;;1.02;1.02;;;14.20;42.50;;;12.00;46.69;101719.16;12237579;19;20088;-77
2022/06/15 04:05:35;;;;;;;0.95;0.95;;;14.20;42.60;;;12.10;47.00;101718.66;12238445;19;20062;-77
2022/06/15 04:09:39;;;;;;;1.02;1.02;;;14.20;42.80;;;11.95;46.71;101694.00;12234652;19;20056;-77
2022/06/15 04:13:42;;;;;;;1.13;1.08;;;14.20;42.80;;;12.05;47.16;101709.31;12237501;19;20096;-77
2022/06/15 04:17:45;;;;;;;1.20;0.90;;;14.20;42.90;;;12.08;47.16;101706.56;12233289;19;20019;-77
2022/06/15 04:21:56;;;;;;;1.52;1.27;;;14.50;43.10;;;12.05;47.30;101702.31;12236506;19;20002;-77
2022/06/15 04:26:01;;;;;;;2.33;1.30;;;14.30;43.30;;;12.01;47.43;101692.03;12237407;19;20015;-77
2022/06/15 04:30:12;;;;;;;1.92;1.42;;;14.30;43.40;;;12.15;47.48;101713.19;12239101;19;20011;-77
2022/06/15 04:34:15;;;;;;;1.23;1.13;;;14.30;43.60;;;12.15;47.69;101706.22;12235953;19;20026;-77
2022/06/15 04:38:17;;;;;;;1.27;1.08;;;14.30;43.70;;;12.19;47.75;101712.16;12216363;19;20018;-77
2022/06/15 04:42:28;;;;;;;1.88;1.48;;;14.30;43.90;;;12.32;47.85;101728.16;12233549;19;20010;-77
2022/06/15 04:46:31;;;;;;;1.27;1.17;;;14.40;44.20;;;12.30;48.05;101701.19;12230928;19;20015;-77
2022/06/15 04:50:38;;;;;;;1.70;1.23;;;14.50;44.40;;;12.59;48.06;101726.00;12228179;19;20086;-77
2022/06/15 04:54:41;;;;;;;1.80;1.10;;;14.70;44.80;;;12.80;48.11;101709.25;12232649;19;20035;-77
2022/06/15 04:58:43;;;;;;;1.23;1.13;;;14.70;44.90;;;12.91;48.30;101710.47;12229002;19;20010;-77
2022/06/15 05:02:45;;;;;;;1.13;1.10;;;14.90;45.30;;;13.12;48.39;101716.44;12229772;19;20028;-77
2022/06/15 05:06:49;;;;;;;1.05;1.05;;;15.00;45.40;;;13.27;48.60;101718.31;12227524;19;20014;-77
2022/06/15 05:10:52;;;;;;;0.90;0.90;;;15.20;45.60;;;13.50;48.53;101725.88;12229384;19;20015;-77
2022/06/15 05:14:54;;;;;;;1.88;1.05;;;15.80;45.90;;;13.62;48.69;101711.28;12232195;19;20014;-77
2022/06/15 05:18:57;;;;;;;1.25;1.25;;;15.80;45.90;;;13.82;48.69;101704.13;12231320;19;20011;-77
2022/06/15 05:23:02;;;;;;;;;;;15.70;46.10;;;14.14;47.99;101716.38;12230857;19;20011;-77
2022/06/15 05:27:24;;;;;;;1.00;0.90;;;16.10;45.50;;;14.26;48.24;101708.78;12229406;19;19942;-77
2022/06/15 05:31:30;;;;;;;;;;;16.10;45.90;;;14.63;47.96;101717.25;12232082;19;20014;-77
2022/06/15 05:35:33;;;;;;;0.93;0.70;;;16.40;45.00;;;14.91;48.05;101717.38;12243282;19;19982;-79
2022/06/15 05:39:35;;;;;;;1.83;0.90;;;16.70;44.90;;;15.15;47.91;101715.13;12232852;19;20022;-77
2022/06/15 05:43:41;;;;;;;0.95;0.82;;;16.90;44.80;;;15.58;47.78;101728.38;12241943;19;20010;-80
2022/06/15 05:47:42;;;;;;;1.48;0.90;;;17.20;44.70;;;15.82;47.77;101728.66;12235885;19;20082;-77
2022/06/15 05:52:13;;;;;;;1.95;0.70;;;17.50;44.60;;;16.06;47.87;101731.56;12236524;19;20409;-77
2022/06/15 05:56:20;;;;;;;1.95;1.10;;;17.90;44.40;;;16.21;47.57;101706.06;12239424;19;20384;-77
2022/06/15 06:00:25;;;;;;;2.63;1.17;;;18.00;44.10;;;16.50;47.82;101719.16;12240837;19;20485;-77
2022/06/15 06:04:26;;;;;;;1.10;0.80;;;18.20;44.00;;;16.72;47.56;101721.28;12243825;19;20014;-77
2022/06/15 06:08:29;;;;;;;0.80;0.80;;;18.60;43.70;;;16.87;47.43;101716.81;12237163;19;20058;-77
2022/06/15 06:12:31;;;;;;;0.70;0.70;;;18.60;43.10;;;16.94;47.01;101711.03;12239334;19;20479;-77
2022/06/15 06:16:32;;;;;;;4.25;1.35;;;18.80;43.20;;;16.93;47.24;101679.47;12237790;19;20013;-77
2022/06/15 06:20:34;;;;;;;2.00;1.00;;;19.30;43.60;;;17.42;47.27;101715.78;12241180;19;20370;-78
2022/06/15 06:24:35;;;;;;;1.27;0.88;;;19.10;43.20;;;17.63;47.04;101722.22;12242303;19;20018;-76
2022/06/15 06:28:39;;;;;;;2.97;1.02;;;19.50;42.80;;;17.80;46.98;101728.16;12242003;19;20022;-78
2022/06/15 06:32:40;;;;;;;2.03;1.50;;;19.50;42.60;;;17.81;46.93;101716.63;12234434;19;20018;-77
2022/06/15 06:36:45;;;;;;;1.63;0.80;;;19.70;42.80;;;18.14;46.67;101734.53;12236280;19;20010;-77
2022/06/15 06:40:52;;;;;;;2.20;1.00;;;20.10;42.40;;;18.39;46.59;101727.50;12239180;19;20396;-78
2022/06/15 06:44:53;;;;;;;1.58;0.90;;;20.00;42.00;;;18.50;46.30;101717.84;12239464;19;20033;-77
2022/06/15 06:48:56;;;;;;;1.75;0.88;;;20.20;41.60;;;18.72;45.85;101713.63;12236587;19;20010;-78
2022/06/15 06:52:58;;;;;;;2.63;1.00;;;20.40;41.30;;;19.05;45.83;101728.00;12235056;19;20030;-78
2022/06/15 06:56:59;;;;;;;1.27;0.85;;;20.60;41.20;;;19.29;45.69;101718.19;12229886;19;20011;-77
2022/06/15 07:01:01;;;;;;;2.20;0.70;;;20.80;41.00;;;19.45;45.58;101701.97;12237319;19;20376;-78
2022/06/15 07:05:03;;;;;;;1.70;1.00;;;21.10;40.80;;;19.66;45.02;101715.41;12238187;19;20555;-80
2022/06/15 07:09:05;;;;;;;1.38;1.05;;;21.40;40.60;;;19.78;45.07;101719.72;12233335;19;20017;-78
2022/06/15 07:13:07;;;;;;;4.57;1.10;;;21.50;40.10;;;19.84;44.64;101713.94;12228872;19;20038;-77
2022/06/15 07:17:09;;;;;;;0.93;0.70;;;21.70;39.80;;;19.92;44.69;101715.97;12234332;19;20481;-78
2022/06/15 07:21:15;;;;;;;1.55;0.70;;;21.70;39.70;;;19.93;44.27;101687.66;12236085;19;20418;-78
2022/06/15 07:25:17;;;;;;;1.02;0.90;;;21.80;39.60;;;20.05;44.47;101694.66;12235720;19;20064;-78
2022/06/15 07:29:21;;;;;;;1.90;0.88;;;22.00;39.80;;;20.23;44.27;101687.03;12219928;19;20428;-78
2022/06/15 07:33:23;;;;;;;1.67;0.70;;;22.10;39.40;;;20.48;43.83;101715.06;12220048;19;20077;-79
2022/06/15 07:37:25;;;;;;;1.77;0.77;;;22.20;38.80;;;20.64;43.80;101718.19;12220600;19;20015;-78
2022/06/15 07:41:27;;;;;;;1.00;0.80;;;22.30;39.00;;;20.45;43.71;101662.25;12224323;19;20015;-77
2022/06/15 07:45:29;;;;;;;2.15;0.82;;;22.40;38.70;;;20.72;43.32;101694.50;12221475;19;20605;-77
2022/06/15 07:53:51;;;;;;;2.33;0.90;;;22.80;38.40;;;21.09;43.28;101707.38;12222341;19;20075;-78
2022/06/15 07:57:53;;;;;;;1.10;0.77;;;23.00;39.10;;;21.27;43.08;101701.47;12209342;19;20030;-79
2022/06/15 08:01:54;;;;;;;2.28;0.90;;;22.90;38.20;;;21.52;42.88;101693.13;12221873;19;20006;-78
2022/06/15 08:05:56;;;;;;;2.13;1.00;;;23.10;38.40;;;21.70;42.68;101688.00;12217086;19;20118;-78
2022/06/15 08:09:58;;;;;;;1.98;1.00;;;23.30;38.30;;;21.98;42.70;101688.22;12218409;19;20018;-78
2022/06/15 08:13:59;;;;;;;2.40;0.93;;;23.50;38.10;;;22.17;42.59;101687.44;12216162;19;20031;-78
2022/06/15 08:18:10;;;;;;;1.58;0.80;;;23.70;38.30;;;22.46;42.14;101704.34;12216161;19;20493;-77
2022/06/15 08:22:12;;;;;;;2.40;0.90;;;24.00;37.70;;;22.63;42.09;101710.81;12222275;19;20042;-78
2022/06/15 08:26:20;;;;;;;1.77;1.02;;;24.20;37.60;;;22.79;41.87;101702.28;12220392;19;20019;-77
2022/06/15 08:30:22;;;;;;;0.85;0.80;;;24.30;37.40;;;22.97;41.45;101702.41;12222049;19;20021;-77
2022/06/15 08:34:26;;;;;;;2.75;0.98;;;24.50;37.10;;;22.97;40.85;101679.28;12221144;19;21107;-78
2022/06/15 08:38:28;;;;;;;2.77;0.80;;;24.70;36.70;;;22.84;41.31;101654.72;12219948;19;20022;-77
2022/06/15 08:43:01;;;;;;;1.42;0.93;;;24.70;36.70;;;23.08;40.89;101672.94;12221879;19;20015;-77
2022/06/15 08:47:47;;;;;;;2.15;1.30;;;24.80;36.30;;;23.27;40.90;101679.22;12208151;19;20026;-78
2022/06/15 08:51:58;;;;;;;2.08;1.00;;;24.90;36.40;;;23.31;40.35;101668.13;12215013;19;20490;-77
2022/06/15 08:56:35;;;;;;;1.35;0.85;;;25.00;35.80;;;23.39;40.61;101668.25;12216143;19;20030;-78
2022/06/15 09:00:40;;;;;;;2.00;0.95;;;25.10;36.20;;;23.44;40.41;101664.28;12216075;19;20078;-77
2022/06/15 09:05:11;;;;;;;1.70;1.00;;;25.10;36.30;;;23.47;40.14;101664.03;12217042;19;20026;-77
2022/06/15 09:10:01;;;;;;;1.25;0.70;;;25.20;35.80;;;23.69;40.30;101671.66;12227873;19;20018;-77
2022/06/15 09:15:05;;;;;;;1.55;0.60;;;25.30;36.10;;;23.91;39.93;101674.94;12229427;19;20018;-78
2022/06/15 09:19:20;;;;;;;1.35;0.77;;;25.40;35.80;;;23.90;39.86;101641.22;12224018;19;20031;-77
2022/06/15 09:23:46;;;;;;;5.40;0.90;;;25.60;35.70;;;24.17;39.71;101670.56;12230036;19;20470;-77
2022/06/15 09:27:57;;;;;;;1.80;0.90;;;25.70;35.90;;;23.99;39.39;101625.16;12225175;19;20468;-77
2022/06/15 09:32:02;;;;;;;0.93;0.70;;;25.80;35.80;;;24.36;39.19;101666.06;12226234;19;20480;-77
2022/06/15 09:36:22;;;;;;;2.10;0.90;;;25.90;35.30;;;24.33;38.89;101651.22;12221949;19;20018;-77
2022/06/15 09:41:06;;;;;;;2.28;0.90;;;26.00;35.10;;;24.39;38.90;101652.44;12228597;19;20015;-77
2022/06/15 09:45:26;;;;;;;1.55;1.00;;;26.00;34.90;;;24.48;38.73;101659.56;12229087;19;20014;-77
2022/06/15 09:49:49;;;;;;;2.03;1.17;;;26.10;35.20;;;24.56;38.29;101651.59;12229250;19;20042;-77
2022/06/15 09:54:22;;;;;;;6.85;1.25;;;26.20;35.00;;;24.78;38.61;101657.47;12215274;19;20014;-77
2022/06/15 09:58:54;;;;;;;1.52;0.70;;;26.30;35.30;;;24.83;38.39;101639.13;12218478;19;20380;-78
2022/06/15 10:03:03;;;;;;;3.90;1.10;;;26.40;35.20;;;25.09;38.36;101650.69;12223377;19;20019;-78
2022/06/15 10:07:37;;;;;;;2.47;0.88;;;26.60;35.00;;;25.21;37.91;101643.25;12225885;19;20014;-77
2022/06/15 10:12:58;;;;;;;2.08;0.90;;;26.70;35.00;;;25.28;37.75;101632.78;12222018;19;20487;-77
2022/06/15 10:16:47;;;;;;;1.40;0.82;;;26.80;34.20;;;25.34;37.76;101638.31;12218554;19;20031;-77
2022/06/15 10:21:18;;;;;;;1.15;1.00;;;26.90;34.80;;;25.32;37.48;101618.91;12220866;19;20007;-77
2022/06/15 10:25:21;;;;;;;2.08;1.00;;;27.00;34.20;;;25.17;37.29;101591.13;12224749;19;20487;-77
2022/06/15 10:29:31;;;;;;;2.40;0.98;;;27.10;34.40;;;25.31;37.50;101624.44;12227339;19;20484;-78
2022/06/15 10:33:47;;;;;;;0.70;0.70;;;27.10;34.00;;;25.44;37.13;101622.16;12224074;19;20014;-78
2022/06/15 10:37:54;;;;;;;1.58;1.05;;;27.10;34.10;;;25.66;37.19;101638.66;12223865;19;20793;-78
2022/06/15 10:42:24;;;;;;;1.50;0.88;;;27.20;34.00;;;25.58;37.13;101618.03;12224275;19;20011;-78
2022/06/15 10:46:26;;;;;;;2.08;1.20;;;27.20;33.80;;;25.71;37.12;101628.31;12223138;19;20479;-78
2022/06/15 10:50:52;;;;;;;2.03;0.90;;;27.20;33.80;;;25.67;36.89;101586.81;12222617;19;20078;-77
2022/06/15 11:04:28;;;;;;;1.00;0.90;;;27.60;33.80;;;26.07;36.10;101579.91;12222926;19;20500;-78
2022/06/15 11:08:33;;;;;;;1.27;0.90;;;27.70;33.80;;;26.31;36.11;101587.13;12217666;19;20015;-78
2022/06/15 11:12:54;;;;;;;2.50;1.10;;;27.90;33.90;;;26.59;35.95;101595.66;12220876;19;20785;-78
2022/06/15 11:21:56;;;;;;;2.67;1.00;;;28.10;33.50;;;26.80;35.89;101598.66;12225964;19;20364;-78
2022/06/15 11:26:51;;;;;;;2.13;1.10;;;28.30;33.40;;;26.83;35.41;101592.13;12220612;19;20082;-78
2022/06/15 11:30:39;;;;;;;1.30;0.95;;;28.30;33.20;;;26.78;35.45;101575.72;12223086;19;20718;-78
2022/06/15 11:35:17;;;;;;;5.50;0.93;;;28.40;33.00;;;26.74;35.46;101561.00;12223275;19;20030;-77
2022/06/15 11:39:33;;;;;;;1.67;1.20;;;28.40;33.00;;;26.91;35.01;101589.44;12222792;19;20045;-78
2022/06/15 11:43:41;;;;;;;;;;;28.40;33.10;;;26.91;35.52;101576.84;12223240;19;20484;-78
2022/06/15 11:48:05;;;;;;;1.23;1.08;;;28.50;33.20;;;26.88;34.84;101584.41;12221584;19;19926;-78
2022/06/15 11:52:43;;;;;;;1.33;0.77;;;28.40;32.40;;;26.91;34.79;101567.97;12221740;19;20026;-78
2022/06/15 11:57:12;;;;;;;1.95;1.00;;;28.50;32.50;;;26.78;34.46;101548.91;12220445;19;20048;-80
2022/06/15 12:01:22;;;;;;;2.75;1.15;;;28.40;32.00;;;26.93;34.45;101569.47;12218552;19;20025;-78
2022/06/15 12:05:34;;;;;;;1.55;1.20;;;28.40;32.40;;;26.97;34.33;101555.72;12219293;19;20094;-78
2022/06/15 12:10:19;;;;;;;3.83;1.17;;;28.40;32.50;;;27.10;34.37;101553.34;12220506;19;20024;-78
2022/06/15 12:14:34;;;;;;;2.08;1.10;;;28.60;32.50;;;27.24;33.87;101559.84;12221828;19;20628;-79
2022/06/15 12:18:53;;;;;;;1.48;1.30;;;28.60;32.40;;;27.19;34.11;101536.22;12221004;19;20010;-78
2022/06/15 12:23:36;;;;;;;2.88;1.10;;;28.70;31.80;;;27.30;33.79;101546.59;12219476;19;20010;-79
2022/06/15 12:28:07;;;;;;;1.58;1.05;;;28.70;32.00;;;27.39;33.84;101538.50;12213687;19;20014;-80
2022/06/15 12:32:43;;;;;;;4.22;1.23;;;28.80;32.00;;;27.34;33.76;101525.63;12219219;19;20082;-80
2022/06/15 12:37:06;;;;;;;2.65;1.20;;;28.80;31.90;;;27.32;33.40;101522.28;12215249;19;20019;-80
2022/06/15 12:45:49;;;;;;;3.38;1.10;;;28.90;31.60;;;27.29;33.38;101515.41;12228596;19;20090;-80
2022/06/15 12:50:25;;;;;;;2.38;1.00;;;28.90;31.60;;;27.35;33.70;101520.09;12231512;19;20010;-80
2022/06/15 12:55:23;;;;;;;1.60;1.13;;;28.80;31.70;;;27.42;33.57;101489.88;12231407;19;20022;-81
2022/06/15 12:59:48;;;;;;;0.95;0.85;;;28.90;31.90;;;27.57;32.98;101504.19;12228492;19;20019;-81
2022/06/15 13:04:03;;;;;;;2.70;1.30;;;29.00;31.70;;;27.67;32.84;101496.72;12228648;19;20022;-81
2022/06/15 13:08:11;;;;;;;3.78;1.02;;;29.40;31.90;;;27.75;32.77;101499.38;12228393;19;20425;-81
2022/06/15 13:12:13;;;;;;;4.53;1.50;;;29.20;31.20;;;27.78;33.02;101501.69;12228877;19;20021;-81
2022/06/15 13:16:41;;;;;;;2.25;1.10;;;29.30;31.40;;;27.74;32.54;101478.09;12228622;19;20014;-79
2022/06/15 13:20:45;;;;;;;1.15;0.90;;;29.30;31.50;;;27.92;32.00;101496.59;12228412;19;20010;-79
2022/06/15 13:25:03;;;;;;;2.55;1.20;;;29.30;31.00;;;27.97;32.49;101489.66;12228515;19;20021;-79
2022/06/15 13:29:11;;;;;;;0.85;0.80;;;29.40;31.20;;;28.06;32.17;101493.13;12231976;19;20015;-79
2022/06/15 13:33:13;;;;;;;1.33;1.00;;;29.40;31.10;;;28.04;32.49;101472.84;12224846;19;20010;-79
2022/06/15 13:37:23;;;;;;;3.28;1.00;;;29.60;31.10;;;28.18;31.89;101491.66;12221996;19;20021;-79
2022/06/15 13:41:29;;;;;;;2.17;1.20;;;29.60;30.60;;;28.16;31.91;101482.94;12234870;19;20019;-79
2022/06/15 13:45:34;;;;;;;2.50;1.30;;;29.60;30.90;;;28.25;32.23;101475.66;12238232;19;20017;-79
2022/06/15 13:49:38;;;;;;;1.70;1.00;;;29.60;30.90;;;28.22;31.88;101458.06;12238702;19;20405;-78
2022/06/15 13:54:17;;;;;;;1.88;1.20;;;29.70;31.00;;;28.40;31.62;101462.22;12236796;19;20042;-79
2022/06/15 13:59:11;;;;;;;1.45;0.95;;;29.80;30.80;;;28.43;31.45;101456.53;12236768;19;20030;-79
2022/06/15 14:03:49;;;;;;;1.77;1.00;;;29.80;30.10;;;27.85;31.25;101377.53;12240831;19;20007;-79
2022/06/15 14:08:09;;;;;;;1.70;1.10;;;29.80;30.40;;;28.32;30.89;101465.84;12233242;19;20109;-80
2022/06/15 14:12:39;;;;;;;1.48;0.90;;;29.80;30.30;;;28.30;31.00;101453.59;12233020;19;20472;-80
2022/06/15 14:16:53;;;;;;;2.17;1.13;;;29.80;30.40;;;28.29;31.06;101451.94;12238035;19;20365;-79
2022/06/15 14:20:54;;;;;;;2.20;1.38;;;29.70;30.40;;;28.26;31.28;101444.25;12242830;19;20018;-80
2022/06/15 14:25:10;;;;;;;2.15;1.17;;;29.70;30.10;;;28.28;31.24;101429.63;12232871;19;20510;-79
2022/06/15 14:29:13;;;;;;;3.08;1.60;;;29.70;30.20;;;28.10;31.01;101407.66;12230388;19;20011;-80
2022/06/15 14:33:26;;;;;;;3.60;1.40;;;29.80;30.30;;;28.37;30.44;101431.19;12232759;19;20098;-81
2022/06/15 14:37:27;;;;;;;1.10;1.00;;;29.80;30.10;;;28.47;30.54;101435.50;12228480;19;20019;-80
2022/06/15 14:41:32;;;;;;;2.95;1.10;;;29.80;30.30;;;28.45;30.73;101430.31;12228792;19;20373;-80
2022/06/15 14:45:38;;;;;;;1.45;0.93;;;29.90;30.20;;;28.58;30.62;101433.19;12232427;19;20019;-80
2022/06/15 14:49:47;;;;;;;2.65;0.90;;;29.90;30.00;;;28.44;30.31;101404.47;12227721;19;20018;-80
2022/06/15 14:54:00;;;;;;;4.57;1.00;;;30.00;30.00;;;28.52;30.28;101423.19;12229553;19;20126;-80
2022/06/15 14:58:17;;;;;;;1.35;1.17;;;29.90;30.00;;;28.56;30.20;101404.81;12226345;19;20950;-80
2022/06/15 15:02:20;;;;;;;2.35;1.27;;;30.00;30.00;;;28.64;30.69;101402.84;12237526;19;20010;-81
2022/06/15 15:06:22;;;;;;;1.63;1.17;;;30.10;30.00;;;28.64;30.29;101402.03;12231584;19;20018;-80
2022/06/15 15:10:30;;;;;;;2.30;1.23;;;30.10;29.90;;;28.42;30.01;101355.41;12234282;19;20480;-81
2022/06/15 15:14:33;;;;;;;3.80;1.27;;;30.10;29.70;;;28.77;29.98;101402.19;12236657;19;20674;-80
2022/06/15 15:18:37;;;;;;;1.45;1.23;;;30.10;29.80;;;28.69;29.83;101370.03;12227433;19;20022;-79
2022/06/15 15:22:51;;;;;;;1.37;0.90;;;30.20;29.60;;;28.71;29.43;101378.75;12234431;19;20460;-80
2022/06/15 15:27:17;;;;;;;0.98;0.90;;;30.20;29.60;;;28.66;29.44;101371.25;12231093;19;20011;-80
2022/06/15 15:36:01;;;;;;;1.15;1.10;;;30.10;29.50;;;28.77;29.20;101387.94;12217586;19;20029;-80
2022/06/15 15:40:19;;;;;;;1.48;1.00;;;30.10;29.50;;;28.77;29.46;101378.00;12213604;19;20026;-80
2022/06/15 15:44:21;;;;;;;1.58;1.10;;;30.20;29.40;;;28.68;29.45;101361.16;12221094;19;20015;-81
2022/06/15 15:48:23;;;;;;;2.95;1.00;;;30.20;29.60;;;28.73;29.68;101365.94;12215872;19;20354;-81
2022/06/15 15:52:26;;;;;;;1.98;0.95;;;30.20;29.40;;;28.74;29.41;101364.13;12216613;19;20031;-81
2022/06/15 15:56:28;;;;;;;1.58;1.15;;;30.10;29.50;;;28.65;29.22;101347.25;12215553;19;20049;-80
2022/06/15 16:00:33;;;;;;;3.25;1.17;;;30.10;29.40;;;28.70;29.26;101360.13;12219218;19;20018;-81
2022/06/15 16:04:38;;;;;;;3.80;1.10;;;30.10;29.50;;;28.49;28.98;101332.19;12208019;19;20014;-80
2022/06/15 16:08:39;;;;;;;1.33;1.20;;;30.10;29.60;;;28.50;29.25;101322.25;12218660;19;20808;-80
2022/06/15 16:12:42;;;;;;;1.80;1.00;;;30.10;29.50;;;28.56;29.41;101338.47;12220578;19;20527;-80
2022/06/15 16:16:44;;;;;;;1.95;1.10;;;30.10;29.40;;;28.56;28.94;101335.78;12216235;19;20022;-81
2022/06/15 16:20:48;;;;;;;1.88;1.20;;;30.10;29.50;;;28.77;29.47;101361.03;12222358;19;20355;-80
2022/06/15 16:24:50;;;;;;;0.90;0.90;;;30.10;29.60;;;28.78;29.25;101365.38;12220903;19;20041;-80
2022/06/15 16:28:53;;;;;;;2.10;1.00;;;30.10;29.50;;;28.74;29.28;101356.88;12222012;19;20007;-80
2022/06/15 16:32:54;;;;;;;2.15;1.10;;;30.10;29.40;;;28.60;29.10;101341.63;12217109;19;20022;-80
2022/06/15 16:36:56;;;;;;;3.00;1.10;;;30.10;29.20;;;28.61;28.92;101333.34;12219104;19;20019;-80
2022/06/15 16:41:13;;;;;;;1.13;0.85;;;30.10;29.30;;;28.42;28.81;101299.00;12221494;19;20011;-80
2022/06/15 16:45:14;;;;;;;1.85;1.02;;;30.10;29.20;;;28.62;28.98;101336.88;12221975;19;20022;-80
2022/06/15 16:49:16;;;;;;;2.20;1.48;;;30.00;29.20;;;28.61;28.59;101344.09;12220713;19;20070;-80
2022/06/15 16:53:18;;;;;;;1.13;1.02;;;30.20;29.20;;;28.47;28.82;101317.28;12220055;19;20033;-80
2022/06/15 16:57:22;;;;;;;2.30;1.15;;;30.00;29.20;;;28.38;28.36;101303.06;12215326;19;20446;-80
2022/06/15 17:01:23;;;;;;;6.35;1.55;;;29.90;29.10;;;28.13;28.67;101267.63;12219122;19;20015;-80
2022/06/15 17:05:25;;;;;;;1.13;1.00;;;29.90;29.70;;;28.12;29.00;101285.59;12218131;19;20022;-80
2022/06/15 17:09:29;;;;;;;2.25;1.30;;;29.90;29.20;;;28.21;28.61;101300.56;12220872;19;20381;-80
2022/06/15 17:13:32;;;;;;;4.10;0.95;;;29.70;29.20;;;28.20;28.66;101298.91;12209307;19;20039;-80
2022/06/15 17:17:34;;;;;;;1.20;0.90;;;29.70;29.20;;;28.16;28.64;101296.78;12213848;19;20077;-80
2022/06/15 17:21:39;;;;;;;2.53;1.45;;;29.80;29.50;;;28.00;28.75;101281.69;12220595;19;20593;-80
2022/06/15 17:25:41;;;;;;;2.90;1.55;;;29.60;29.70;;;27.99;28.92;101296.97;12217703;19;20025;-80
2022/06/15 17:29:43;;;;;;;1.85;1.02;;;29.60;29.80;;;27.90;29.30;101308.00;12228246;19;20134;-80
2022/06/15 17:33:45;;;;;;;5.20;1.10;;;29.40;29.80;;;27.68;29.31;101289.09;12233997;19;20022;-80
2022/06/15 17:37:47;;;;;;;1.63;1.10;;;29.30;29.90;;;27.67;29.40;101300.81;12226487;19;20034;-79
2022/06/15 17:41:54;;;;;;;1.98;1.25;;;29.20;30.00;;;27.56;29.46;101307.47;12229534;19;20846;-77
2022/06/15 17:45:59;;;;;;;1.80;1.10;;;29.10;29.90;;;27.43;29.41;101296.50;12228040;19;20018;-82